This is the latest recevied weather packets stored in our database for station/object KN6ETB-1. If no packets are shown the sender has not sent any weather packets the latest 10 day(s).
| Time | Temp. | Humidity | Pressure | Rain* | Wind** | Luminosity | Snow |
|---|---|---|---|---|---|---|---|
| 1778179166 | 21.11° C | 68% | 1016.2 hPa | 0 mm | - | 778 W/m² | - |
| 1778178862 | 21.67° C | 68% | 1016.2 hPa | 0 mm | - | 777 W/m² | - |
| 1778178560 | 21.11° C | 68% | 1016.1 hPa | 0 mm | - | 787 W/m² | - |
| 1778178256 | 21.11° C | 69% | 1016.3 hPa | 0 mm | - | 799 W/m² | - |
| 1778177952 | 21.11° C | 69% | 1016.2 hPa | 0 mm | - | 812 W/m² | - |
| 1778177648 | 20.56° C | 70% | 1016.2 hPa | 0 mm | - | 843 W/m² | - |
| 1778177345 | 20° C | 71% | 1016.5 hPa | 0 mm | - | 862 W/m² | - |
| 1778177042 | 20° C | 71% | 1016.2 hPa | 0 mm | - | 850 W/m² | - |
| 1778176738 | 20.56° C | 70% | 1016.2 hPa | 0 mm | - | 861 W/m² | - |
| 1778176434 | 20° C | 71% | 1016.2 hPa | 0 mm | - | 832 W/m² | - |
| 1778176132 | 20° C | 71% | 1016.4 hPa | 0 mm | - | 838 W/m² | - |
| 1778175829 | 20° C | 72% | 1016.4 hPa | 0 mm | - | 848 W/m² | - |
| 1778175527 | 20° C | 71% | 1016.3 hPa | 0 mm | - | 869 W/m² | - |
| 1778175224 | 19.44° C | 71% | 1016.5 hPa | 0 mm | - | 860 W/m² | - |
| 1778174920 | 18.89° C | 73% | 1016.5 hPa | 0 mm | - | 859 W/m² | - |
| 1778174617 | 19.44° C | 73% | 1016.4 hPa | 0 mm | - | 846 W/m² | - |
| 1778174313 | 18.89° C | 75% | 1016.2 hPa | 0 mm | - | 840 W/m² | - |
| 1778174010 | 18.89° C | 73% | 1016.2 hPa | 0 mm | - | 817 W/m² | - |
| 1778173707 | 18.89° C | 74% | 1016.3 hPa | 0 mm | - | 809 W/m² | - |
| 1778173403 | 18.89° C | 74% | 1016.5 hPa | 0 mm | - | 768 W/m² | - |
| 1778173099 | 18.89° C | 73% | 1016.3 hPa | 0 mm | - | 736 W/m² | - |
| 1778172795 | 18.33° C | 76% | 1016.2 hPa | 0 mm | - | 716 W/m² | - |
| 1778172492 | 17.78° C | 77% | 1016.3 hPa | 0 mm | - | 691 W/m² | - |
| 1778172189 | 17.78° C | 76% | 1016.4 hPa | 0 mm | - | 668 W/m² | - |
| 1778171886 | 17.78° C | 77% | 1016.1 hPa | 0 mm | - | 654 W/m² | - |
* Rain latest hour (hover to see other rain measurements)
** Current wind speed in m/s (hover to see current wind gust speed)